sensor_id;sensor_type;location;lat;lon;timestamp;pressure;altitude;pressure_sealevel;temperature;humidity
76122;BME280;64853;53.200;6.080;2022-12-11T00:03:15;101018.31;;;20.90;31.45
76122;BME280;64853;53.200;6.080;2022-12-11T00:08:07;101041.66;;;21.03;30.89
76122;BME280;64853;53.200;6.080;2022-12-11T00:12:58;101035.34;;;20.97;31.38
76122;BME280;64853;53.200;6.080;2022-12-11T00:17:49;101040.69;;;20.93;30.88
76122;BME280;64853;53.200;6.080;2022-12-11T00:22:42;101031.91;;;20.86;31.52
76122;BME280;64853;53.200;6.080;2022-12-11T00:27:34;101030.59;;;20.84;31.10
76122;BME280;64853;53.200;6.080;2022-12-11T00:32:25;101021.88;;;20.71;31.00
76122;BME280;64853;53.200;6.080;2022-12-11T00:37:17;101021.56;;;20.73;31.34
76122;BME280;64853;53.200;6.080;2022-12-11T00:42:10;101021.66;;;20.68;31.41
76122;BME280;64853;53.200;6.080;2022-12-11T00:47:01;101018.00;;;20.53;31.53
76122;BME280;64853;53.200;6.080;2022-12-11T00:51:52;101032.84;;;20.57;31.28
76122;BME280;64853;53.200;6.080;2022-12-11T00:56:44;101026.28;;;20.53;31.53
76122;BME280;64853;53.200;6.080;2022-12-11T01:01:37;101036.28;;;20.49;31.42
76122;BME280;64853;53.200;6.080;2022-12-11T01:06:28;101037.19;;;20.45;31.59
76122;BME280;64853;53.200;6.080;2022-12-11T01:11:20;101030.44;;;20.32;31.35
76122;BME280;64853;53.200;6.080;2022-12-11T01:16:13;101038.66;;;20.37;31.64
76122;BME280;64853;53.200;6.080;2022-12-11T01:21:09;101031.25;;;20.32;31.20
76122;BME280;64853;53.200;6.080;2022-12-11T01:26:05;101031.16;;;20.18;31.24
76122;BME280;64853;53.200;6.080;2022-12-11T01:30:57;101054.31;;;20.22;31.77
76122;BME280;64853;53.200;6.080;2022-12-11T01:35:48;101054.09;;;20.19;31.76
76122;BME280;64853;53.200;6.080;2022-12-11T01:40:46;101061.88;;;20.17;31.77
76122;BME280;64853;53.200;6.080;2022-12-11T01:45:39;101066.31;;;20.13;31.63
76122;BME280;64853;53.200;6.080;2022-12-11T01:50:35;101068.56;;;20.11;31.73
76122;BME280;64853;53.200;6.080;2022-12-11T01:55:28;101059.72;;;20.09;31.26
76122;BME280;64853;53.200;6.080;2022-12-11T02:00:21;101074.44;;;20.04;31.44
76122;BME280;64853;53.200;6.080;2022-12-11T02:05:13;101060.59;;;20.04;31.73
76122;BME280;64853;53.200;6.080;2022-12-11T02:10:05;101056.22;;;20.03;31.70
76122;BME280;64853;53.200;6.080;2022-12-11T02:15:04;101049.59;;;19.99;31.62
76122;BME280;64853;53.200;6.080;2022-12-11T02:20:03;101039.69;;;19.98;31.34
76122;BME280;64853;53.200;6.080;2022-12-11T02:25:04;101035.25;;;19.97;31.31
76122;BME280;64853;53.200;6.080;2022-12-11T02:30:03;101031.41;;;19.93;31.43
76122;BME280;64853;53.200;6.080;2022-12-11T02:34:59;101035.00;;;19.93;31.65
76122;BME280;64853;53.200;6.080;2022-12-11T02:39:55;101038.06;;;19.92;31.63
76122;BME280;64853;53.200;6.080;2022-12-11T02:44:48;101043.59;;;19.92;31.73
76122;BME280;64853;53.200;6.080;2022-12-11T02:49:44;101036.41;;;19.91;31.78
76122;BME280;64853;53.200;6.080;2022-12-11T02:54:38;101038.66;;;19.88;31.56
76122;BME280;64853;53.200;6.080;2022-12-11T02:59:34;101037.00;;;19.87;31.33
76122;BME280;64853;53.200;6.080;2022-12-11T03:04:27;101025.94;;;19.87;31.68
76122;BME280;64853;53.200;6.080;2022-12-11T03:09:21;101017.13;;;19.85;31.73
76122;BME280;64853;53.200;6.080;2022-12-11T03:14:12;101010.75;;;19.85;31.42
76122;BME280;64853;53.200;6.080;2022-12-11T03:19:10;101013.84;;;19.83;31.57
76122;BME280;64853;53.200;6.080;2022-12-11T03:24:08;101016.59;;;19.83;31.44
76122;BME280;64853;53.200;6.080;2022-12-11T03:29:10;101017.72;;;19.82;31.56
76122;BME280;64853;53.200;6.080;2022-12-11T03:34:09;101023.53;;;19.81;31.92
76122;BME280;64853;53.200;6.080;2022-12-11T03:39:06;101021.56;;;19.81;31.66
76122;BME280;64853;53.200;6.080;2022-12-11T03:43:58;101018.28;;;19.79;31.94
76122;BME280;64853;53.200;6.080;2022-12-11T03:48:52;101021.88;;;19.80;31.76
76122;BME280;64853;53.200;6.080;2022-12-11T03:53:46;101008.34;;;19.78;31.70
76122;BME280;64853;53.200;6.080;2022-12-11T03:58:38;101008.34;;;19.78;31.79
76122;BME280;64853;53.200;6.080;2022-12-11T04:03:29;101000.06;;;19.78;31.47
76122;BME280;64853;53.200;6.080;2022-12-11T04:08:22;100996.78;;;19.76;31.72
76122;BME280;64853;53.200;6.080;2022-12-11T04:13:14;100996.78;;;19.76;31.81
76122;BME280;64853;53.200;6.080;2022-12-11T04:18:06;100994.31;;;19.75;31.80
76122;BME280;64853;53.200;6.080;2022-12-11T04:23:17;100993.50;;;19.74;31.74
76122;BME280;64853;53.200;6.080;2022-12-11T04:28:28;100990.72;;;19.74;31.92
76122;BME280;64853;53.200;6.080;2022-12-11T04:33:19;100995.13;;;19.75;31.73
76122;BME280;64853;53.200;6.080;2022-12-11T04:38:11;101003.75;;;19.93;31.91
76122;BME280;64853;53.200;6.080;2022-12-11T04:43:02;101009.16;;;20.08;31.46
76122;BME280;64853;53.200;6.080;2022-12-11T04:47:55;101007.84;;;20.24;31.20
76122;BME280;64853;53.200;6.080;2022-12-11T04:52:47;101010.41;;;20.40;31.66
76122;BME280;64853;53.200;6.080;2022-12-11T04:57:38;101001.91;;;20.55;31.58
76122;BME280;64853;53.200;6.080;2022-12-11T05:02:33;101000.03;;;20.70;31.07
76122;BME280;64853;53.200;6.080;2022-12-11T05:07:26;100992.66;;;20.84;31.10
76122;BME280;64853;53.200;6.080;2022-12-11T05:12:18;100987.47;;;20.97;31.33
76122;BME280;64853;53.200;6.080;2022-12-11T05:17:09;100988.66;;;21.09;31.35
76122;BME280;64853;53.200;6.080;2022-12-11T05:22:00;100984.28;;;21.22;30.75
76122;BME280;64853;53.200;6.080;2022-12-11T05:26:53;100980.22;;;21.34;31.23
76122;BME280;64853;53.200;6.080;2022-12-11T05:31:45;100963.94;;;21.46;30.64
76122;BME280;64853;53.200;6.080;2022-12-11T05:36:36;100960.16;;;21.56;31.02
76122;BME280;64853;53.200;6.080;2022-12-11T05:41:28;100951.44;;;21.62;30.47
76122;BME280;64853;53.200;6.080;2022-12-11T05:46:23;100956.81;;;21.73;30.77
76122;BME280;64853;53.200;6.080;2022-12-11T05:51:16;100949.41;;;21.82;30.85
76122;BME280;64853;53.200;6.080;2022-12-11T05:56:12;100946.72;;;21.91;30.67
76122;BME280;64853;53.200;6.080;2022-12-11T06:01:06;100932.34;;;21.89;30.70
76122;BME280;64853;53.200;6.080;2022-12-11T06:06:01;100947.75;;;22.09;30.18
76122;BME280;64853;53.200;6.080;2022-12-11T06:10:52;100949.78;;;22.17;30.55
76122;BME280;64853;53.200;6.080;2022-12-11T06:15:44;100944.66;;;22.24;30.52
76122;BME280;64853;53.200;6.080;2022-12-11T06:20:35;100941.44;;;22.31;30.14
76122;BME280;64853;53.200;6.080;2022-12-11T06:25:28;100942.16;;;22.36;30.30
76122;BME280;64853;53.200;6.080;2022-12-11T06:30:20;100936.19;;;22.43;30.02
76122;BME280;64853;53.200;6.080;2022-12-11T06:35:11;100944.91;;;22.50;30.39
76122;BME280;64853;53.200;6.080;2022-12-11T06:40:04;100925.09;;;22.43;30.10
76122;BME280;64853;53.200;6.080;2022-12-11T06:44:58;100953.59;;;22.57;30.16
76122;BME280;64853;53.200;6.080;2022-12-11T06:49:49;100958.41;;;22.29;30.34
76122;BME280;64853;53.200;6.080;2022-12-11T06:54:40;100960.09;;;22.02;31.06
76122;BME280;64853;53.200;6.080;2022-12-11T06:59:32;100964.59;;;21.84;31.27
76122;BME280;64853;53.200;6.080;2022-12-11T07:04:25;100961.72;;;21.76;31.42
76122;BME280;64853;53.200;6.080;2022-12-11T07:09:16;100956.19;;;21.76;31.86
76122;BME280;64853;53.200;6.080;2022-12-11T07:14:08;100959.78;;;21.76;31.55
76122;BME280;64853;53.200;6.080;2022-12-11T07:18:59;100960.59;;;21.77;31.50
76122;BME280;64853;53.200;6.080;2022-12-11T07:23:52;100975.06;;;21.74;31.35
76122;BME280;64853;53.200;6.080;2022-12-11T07:28:44;100987.59;;;21.71;31.42
76122;BME280;64853;53.200;6.080;2022-12-11T07:33:36;100986.25;;;21.68;31.51
76122;BME280;64853;53.200;6.080;2022-12-11T07:38:28;100997.44;;;21.63;32.07
76122;BME280;64853;53.200;6.080;2022-12-11T07:43:21;100994.16;;;21.61;31.64
76122;BME280;64853;53.200;6.080;2022-12-11T07:48:12;100995.88;;;21.57;31.61
76122;BME280;64853;53.200;6.080;2022-12-11T07:53:04;100993.72;;;21.54;31.90
76122;BME280;64853;53.200;6.080;2022-12-11T07:57:56;100991.06;;;21.49;32.01
76122;BME280;64853;53.200;6.080;2022-12-11T08:02:48;100986.09;;;21.46;32.27
76122;BME280;64853;53.200;6.080;2022-12-11T08:07:40;100985.56;;;21.44;31.95
76122;BME280;64853;53.200;6.080;2022-12-11T08:12:31;100989.47;;;21.43;32.39
76122;BME280;64853;53.200;6.080;2022-12-11T08:17:23;100984.03;;;21.38;32.10
76122;BME280;64853;53.200;6.080;2022-12-11T08:22:16;100990.38;;;21.38;32.09
76122;BME280;64853;53.200;6.080;2022-12-11T08:27:07;100993.03;;;21.43;31.84
76122;BME280;64853;53.200;6.080;2022-12-11T08:31:58;100993.31;;;21.47;32.21
76122;BME280;64853;53.200;6.080;2022-12-11T08:36:50;100997.09;;;21.51;32.49
76122;BME280;64853;53.200;6.080;2022-12-11T08:41:43;100995.97;;;21.52;31.94
76122;BME280;64853;53.200;6.080;2022-12-11T08:46:34;101001.72;;;21.56;32.36
76122;BME280;64853;53.200;6.080;2022-12-11T08:51:27;101005.84;;;21.58;32.09
76122;BME280;64853;53.200;6.080;2022-12-11T08:56:20;100999.78;;;21.56;31.97
76122;BME280;64853;53.200;6.080;2022-12-11T09:01:15;100993.81;;;21.49;32.54
76122;BME280;64853;53.200;6.080;2022-12-11T09:06:09;100993.88;;;21.44;32.69
76122;BME280;64853;53.200;6.080;2022-12-11T09:11:03;100992.34;;;21.38;32.72
76122;BME280;64853;53.200;6.080;2022-12-11T09:15:54;100987.50;;;21.29;32.57
76122;BME280;64853;53.200;6.080;2022-12-11T09:20:47;100980.69;;;21.22;32.52
76122;BME280;64853;53.200;6.080;2022-12-11T09:25:39;100969.38;;;21.18;32.30
76122;BME280;64853;53.200;6.080;2022-12-11T09:30:30;100965.00;;;21.17;32.63
76122;BME280;64853;53.200;6.080;2022-12-11T09:35:21;100968.38;;;21.14;32.22
76122;BME280;64853;53.200;6.080;2022-12-11T09:40:14;100971.66;;;21.16;32.15
76122;BME280;64853;53.200;6.080;2022-12-11T09:45:12;100970.63;;;21.12;32.23
76122;BME280;64853;53.200;6.080;2022-12-11T09:50:11;100961.56;;;21.06;32.33
76122;BME280;64853;53.200;6.080;2022-12-11T09:55:12;100962.31;;;21.12;32.44
76122;BME280;64853;53.200;6.080;2022-12-11T10:00:25;100968.66;;;21.12;32.18
76122;BME280;64853;53.200;6.080;2022-12-11T10:05:21;100971.44;;;21.12;32.69
76122;BME280;64853;53.200;6.080;2022-12-11T10:10:22;100967.56;;;21.13;32.10
76122;BME280;64853;53.200;6.080;2022-12-11T10:15:32;100972.25;;;21.13;32.10
76122;BME280;64853;53.200;6.080;2022-12-11T10:20:29;100965.59;;;21.14;32.03
76122;BME280;64853;53.200;6.080;2022-12-11T10:25:26;100966.72;;;21.13;32.02
76122;BME280;64853;53.200;6.080;2022-12-11T10:30:21;100959.31;;;21.08;32.40
76122;BME280;64853;53.200;6.080;2022-12-11T10:35:19;100962.31;;;21.12;32.45
76122;BME280;64853;53.200;6.080;2022-12-11T10:40:15;100964.56;;;21.10;32.24
76122;BME280;64853;53.200;6.080;2022-12-11T10:45:14;100957.91;;;21.11;32.07
76122;BME280;64853;53.200;6.080;2022-12-11T10:50:06;100956.53;;;21.08;32.62
76122;BME280;64853;53.200;6.080;2022-12-11T10:55:02;100948.47;;;21.12;32.77
76122;BME280;64853;53.200;6.080;2022-12-11T10:59:54;100943.56;;;21.23;32.72
76122;BME280;64853;53.200;6.080;2022-12-11T11:04:46;100944.81;;;21.30;33.04
76122;BME280;64853;53.200;6.080;2022-12-11T11:09:37;100941.72;;;21.32;32.95
76122;BME280;64853;53.200;6.080;2022-12-11T11:14:31;100945.66;;;21.45;33.21
76122;BME280;64853;53.200;6.080;2022-12-11T11:19:24;100935.03;;;21.52;32.50
76122;BME280;64853;53.200;6.080;2022-12-11T11:24:24;100930.69;;;21.46;32.79
76122;BME280;64853;53.200;6.080;2022-12-11T11:29:25;100941.50;;;21.61;32.82
76122;BME280;64853;53.200;6.080;2022-12-11T11:34:19;100935.03;;;21.66;32.96
76122;BME280;64853;53.200;6.080;2022-12-11T11:39:19;100937.72;;;21.71;32.60
76122;BME280;64853;53.200;6.080;2022-12-11T11:44:17;100938.50;;;21.72;32.53
76122;BME280;64853;53.200;6.080;2022-12-11T11:49:14;100932.16;;;21.71;32.51
76122;BME280;64853;53.200;6.080;2022-12-11T11:54:29;100925.50;;;21.72;32.31
76122;BME280;64853;53.200;6.080;2022-12-11T11:59:24;100923.53;;;21.73;31.75
76122;BME280;64853;53.200;6.080;2022-12-11T12:04:17;100931.34;;;21.71;31.94
76122;BME280;64853;53.200;6.080;2022-12-11T12:09:22;100919.09;;;21.58;31.80
76122;BME280;64853;53.200;6.080;2022-12-11T12:14:21;100919.03;;;21.49;31.46
76122;BME280;64853;53.200;6.080;2022-12-11T12:19:23;100910.31;;;21.23;32.03
76122;BME280;64853;53.200;6.080;2022-12-11T12:24:27;100932.91;;;21.30;31.32
76122;BME280;64853;53.200;6.080;2022-12-11T12:29:26;100924.47;;;21.21;31.35
76122;BME280;64853;53.200;6.080;2022-12-11T12:34:32;100925.94;;;21.19;31.11
76122;BME280;64853;53.200;6.080;2022-12-11T12:39:32;100926.78;;;21.33;31.24
76122;BME280;64853;53.200;6.080;2022-12-11T12:44:31;100929.78;;;21.51;31.55
76122;BME280;64853;53.200;6.080;2022-12-11T12:49:34;100924.34;;;21.59;31.11
76122;BME280;64853;53.200;6.080;2022-12-11T12:54:29;100904.88;;;21.51;30.87
76122;BME280;64853;53.200;6.080;2022-12-11T12:59:23;100926.19;;;21.64;31.46
76122;BME280;64853;53.200;6.080;2022-12-11T13:04:27;100919.22;;;21.66;31.12
76122;BME280;64853;53.200;6.080;2022-12-11T13:09:22;100916.97;;;21.68;30.85
76122;BME280;64853;53.200;6.080;2022-12-11T13:14:29;100922.19;;;21.70;30.84
76122;BME280;64853;53.200;6.080;2022-12-11T13:19:26;100921.88;;;21.72;31.37
76122;BME280;64853;53.200;6.080;2022-12-11T13:24:24;100927.13;;;21.73;31.11
76122;BME280;64853;53.200;6.080;2022-12-11T13:29:32;100925.16;;;21.74;31.52
76122;BME280;64853;53.200;6.080;2022-12-11T13:34:23;100928.78;;;21.74;31.56
76122;BME280;64853;53.200;6.080;2022-12-11T13:39:18;100920.47;;;21.74;31.08
76122;BME280;64853;53.200;6.080;2022-12-11T13:44:17;100907.03;;;21.67;31.54
76122;BME280;64853;53.200;6.080;2022-12-11T13:49:21;100925.16;;;21.74;31.33
76122;BME280;64853;53.200;6.080;2022-12-11T13:54:16;100920.56;;;21.69;31.44
76122;BME280;64853;53.200;6.080;2022-12-11T13:59:19;100933.81;;;21.72;31.80
76122;BME280;64853;53.200;6.080;2022-12-11T14:04:18;100938.31;;;21.68;31.80
76122;BME280;64853;53.200;6.080;2022-12-11T14:09:15;100943.34;;;21.66;31.62
76122;BME280;64853;53.200;6.080;2022-12-11T14:14:17;100925.38;;;21.49;31.89
76122;BME280;64853;53.200;6.080;2022-12-11T14:19:13;100944.28;;;21.61;31.88
76122;BME280;64853;53.200;6.080;2022-12-11T14:24:11;100946.50;;;21.59;32.09
76122;BME280;64853;53.200;6.080;2022-12-11T14:29:03;100943.22;;;21.57;31.55
76122;BME280;64853;53.200;6.080;2022-12-11T14:33:55;100954.13;;;21.54;32.02
76122;BME280;64853;53.200;6.080;2022-12-11T14:38:53;100961.09;;;21.51;31.80
76122;BME280;64853;53.200;6.080;2022-12-11T14:43:49;100966.41;;;21.47;31.56
76122;BME280;64853;53.200;6.080;2022-12-11T14:48:45;100961.47;;;21.44;32.09
76122;BME280;64853;53.200;6.080;2022-12-11T14:53:39;100964.53;;;21.43;31.98
76122;BME280;64853;53.200;6.080;2022-12-11T14:58:36;100943.09;;;21.35;32.01
76122;BME280;64853;53.200;6.080;2022-12-11T15:03:32;100949.13;;;21.37;32.22
76122;BME280;64853;53.200;6.080;2022-12-11T15:08:26;100944.81;;;21.30;31.83
76122;BME280;64853;53.200;6.080;2022-12-11T15:13:21;100952.50;;;21.34;32.24
76122;BME280;64853;53.200;6.080;2022-12-11T15:18:19;100946.63;;;21.21;31.95
76122;BME280;64853;53.200;6.080;2022-12-11T15:23:13;100961.72;;;21.29;31.76
76122;BME280;64853;53.200;6.080;2022-12-11T15:28:33;100967.56;;;21.27;32.29
76122;BME280;64853;53.200;6.080;2022-12-11T15:33:26;100962.34;;;21.26;32.00
76122;BME280;64853;53.200;6.080;2022-12-11T15:38:26;100964.59;;;21.24;32.30
76122;BME280;64853;53.200;6.080;2022-12-11T15:43:18;100969.63;;;21.22;32.03
76122;BME280;64853;53.200;6.080;2022-12-11T15:48:10;100972.69;;;21.20;32.24
76122;BME280;64853;53.200;6.080;2022-12-11T15:53:01;100969.38;;;21.18;32.32
76122;BME280;64853;53.200;6.080;2022-12-11T15:57:55;100961.38;;;21.17;32.05
76122;BME280;64853;53.200;6.080;2022-12-11T16:02:48;100970.03;;;21.15;32.44
76122;BME280;64853;53.200;6.080;2022-12-11T16:07:41;100970.09;;;21.10;32.29
76122;BME280;64853;53.200;6.080;2022-12-11T16:12:32;100977.78;;;21.13;31.98
76122;BME280;64853;53.200;6.080;2022-12-11T16:17:25;100972.25;;;21.13;32.26
76122;BME280;64853;53.200;6.080;2022-12-11T16:22:16;100975.03;;;21.13;32.35
76122;BME280;64853;53.200;6.080;2022-12-11T16:27:08;100970.63;;;21.12;32.30
76122;BME280;64853;53.200;6.080;2022-12-11T16:32:00;100969.78;;;21.11;32.41
76122;BME280;64853;53.200;6.080;2022-12-11T16:36:53;100963.44;;;21.11;32.39
76122;BME280;64853;53.200;6.080;2022-12-11T16:41:45;100959.00;;;21.10;31.92
76122;BME280;64853;53.200;6.080;2022-12-11T16:46:37;100957.09;;;21.10;32.19
76122;BME280;64853;53.200;6.080;2022-12-11T16:51:28;100957.09;;;21.10;32.38
76122;BME280;64853;53.200;6.080;2022-12-11T16:56:21;100970.09;;;21.10;32.21
76122;BME280;64853;53.200;6.080;2022-12-11T17:01:14;100964.56;;;21.10;31.95
76122;BME280;64853;53.200;6.080;2022-12-11T17:06:06;100964.56;;;21.10;32.52
76122;BME280;64853;53.200;6.080;2022-12-11T17:10:57;100972.03;;;21.09;32.20
76122;BME280;64853;53.200;6.080;2022-12-11T17:15:50;100975.41;;;21.06;32.07
76122;BME280;64853;53.200;6.080;2022-12-11T17:20:43;100966.00;;;21.07;32.48
76122;BME280;64853;53.200;6.080;2022-12-11T17:25:38;100969.56;;;21.08;32.06
76122;BME280;64853;53.200;6.080;2022-12-11T17:30:29;100972.34;;;21.08;32.42
76122;BME280;64853;53.200;6.080;2022-12-11T17:35:22;100960.16;;;21.09;32.03
76122;BME280;64853;53.200;6.080;2022-12-11T17:40:14;100965.69;;;21.09;32.10
76122;BME280;64853;53.200;6.080;2022-12-11T17:45:05;100964.84;;;21.08;32.51
76122;BME280;64853;53.200;6.080;2022-12-11T17:49:57;100969.47;;;21.13;32.34
76122;BME280;64853;53.200;6.080;2022-12-11T17:54:51;100966.63;;;21.18;32.35
76122;BME280;64853;53.200;6.080;2022-12-11T17:59:42;100971.66;;;21.16;32.56
76122;BME280;64853;53.200;6.080;2022-12-11T18:04:35;100984.47;;;21.12;32.40
76122;BME280;64853;53.200;6.080;2022-12-11T18:09:27;100981.47;;;21.08;32.86
76122;BME280;64853;53.200;6.080;2022-12-11T18:14:20;100976.53;;;21.05;32.45
76122;BME280;64853;53.200;6.080;2022-12-11T18:19:11;100974.06;;;21.04;33.00
76122;BME280;64853;53.200;6.080;2022-12-11T18:24:04;100982.91;;;21.06;32.88
76122;BME280;64853;53.200;6.080;2022-12-11T18:28:56;100982.38;;;21.04;32.56
76122;BME280;64853;53.200;6.080;2022-12-11T18:33:49;100981.84;;;21.02;32.69
76122;BME280;64853;53.200;6.080;2022-12-11T18:38:41;100985.75;;;21.01;32.70
76122;BME280;64853;53.200;6.080;2022-12-11T18:43:33;100989.94;;;20.98;32.66
76122;BME280;64853;53.200;6.080;2022-12-11T18:48:25;100983.91;;;20.96;33.30
76122;BME280;64853;53.200;6.080;2022-12-11T18:53:18;100983.38;;;20.94;32.87
76122;BME280;64853;53.200;6.080;2022-12-11T18:58:09;100985.31;;;20.93;32.69
76122;BME280;64853;53.200;6.080;2022-12-11T19:03:01;100980.81;;;20.98;33.13
76122;BME280;64853;53.200;6.080;2022-12-11T19:07:53;100985.13;;;21.04;33.01
76122;BME280;64853;53.200;6.080;2022-12-11T19:12:45;100963.22;;;21.07;32.63
76122;BME280;64853;53.200;6.080;2022-12-11T19:17:37;100965.41;;;21.10;32.47
76122;BME280;64853;53.200;6.080;2022-12-11T19:22:28;100969.38;;;21.18;32.64
76122;BME280;64853;53.200;6.080;2022-12-11T19:27:20;100976.94;;;21.31;32.93
76122;BME280;64853;53.200;6.080;2022-12-11T19:32:13;100961.31;;;21.36;33.02
76122;BME280;64853;53.200;6.080;2022-12-11T19:37:04;100976.38;;;21.48;33.01
76122;BME280;64853;53.200;6.080;2022-12-11T19:41:55;100976.59;;;21.52;33.33
76122;BME280;64853;53.200;6.080;2022-12-11T19:46:47;100979.75;;;21.59;33.01
76122;BME280;64853;53.200;6.080;2022-12-11T19:51:40;100986.84;;;21.65;32.97
76122;BME280;64853;53.200;6.080;2022-12-11T19:56:33;100982.06;;;21.71;33.21
76122;BME280;64853;53.200;6.080;2022-12-11T20:01:26;100973.31;;;21.78;32.61
76122;BME280;64853;53.200;6.080;2022-12-11T20:06:19;100978.75;;;21.83;33.14
76122;BME280;64853;53.200;6.080;2022-12-11T20:11:13;100980.59;;;21.88;32.87
76122;BME280;64853;53.200;6.080;2022-12-11T20:16:05;100963.34;;;21.77;32.96
76122;BME280;64853;53.200;6.080;2022-12-11T20:20:58;100984.63;;;21.95;32.89
76122;BME280;64853;53.200;6.080;2022-12-11T20:25:49;100976.91;;;21.92;32.77
76122;BME280;64853;53.200;6.080;2022-12-11T20:30:42;100982.56;;;22.01;32.93
76122;BME280;64853;53.200;6.080;2022-12-11T20:35:34;100987.28;;;22.00;32.87
76122;BME280;64853;53.200;6.080;2022-12-11T20:40:25;100989.66;;;21.93;32.46
76122;BME280;64853;53.200;6.080;2022-12-11T20:45:16;100990.88;;;21.87;32.65
76122;BME280;64853;53.200;6.080;2022-12-11T20:50:09;100993.75;;;21.82;32.96
76122;BME280;64853;53.200;6.080;2022-12-11T20:55:01;101004.94;;;21.77;32.77
76122;BME280;64853;53.200;6.080;2022-12-11T20:59:53;101010.28;;;21.73;33.38
76122;BME280;64853;53.200;6.080;2022-12-11T21:04:44;101004.84;;;21.68;33.33
76122;BME280;64853;53.200;6.080;2022-12-11T21:09:38;101004.63;;;21.64;33.31
76122;BME280;64853;53.200;6.080;2022-12-11T21:14:30;101006.97;;;21.57;33.37
76122;BME280;64853;53.200;6.080;2022-12-11T21:19:21;101012.91;;;21.51;33.05
76122;BME280;64853;53.200;6.080;2022-12-11T21:24:14;101005.28;;;21.42;33.28
76122;BME280;64853;53.200;6.080;2022-12-11T21:29:07;101013.53;;;21.28;33.51
76122;BME280;64853;53.200;6.080;2022-12-11T21:33:58;101012.66;;;21.14;33.59
76122;BME280;64853;53.200;6.080;2022-12-11T21:38:50;101015.75;;;21.12;33.21
76122;BME280;64853;53.200;6.080;2022-12-11T21:43:41;101012.97;;;21.12;32.98
76122;BME280;64853;53.200;6.080;2022-12-11T21:48:35;101011.63;;;21.10;32.60
76122;BME280;64853;53.200;6.080;2022-12-11T21:53:26;101019.41;;;21.08;32.75
76122;BME280;64853;53.200;6.080;2022-12-11T21:58:17;101017.53;;;21.03;32.62
76122;BME280;64853;53.200;6.080;2022-12-11T22:03:09;101016.50;;;20.99;32.97
76122;BME280;64853;53.200;6.080;2022-12-11T22:08:02;101015.47;;;20.95;32.63
76122;BME280;64853;53.200;6.080;2022-12-11T22:12:53;101016.38;;;20.90;32.90
76122;BME280;64853;53.200;6.080;2022-12-11T22:17:45;101027.53;;;20.85;32.96
76122;BME280;64853;53.200;6.080;2022-12-11T22:22:36;101022.59;;;20.82;32.93
76122;BME280;64853;53.200;6.080;2022-12-11T22:27:29;101016.28;;;20.76;32.94
76122;BME280;64853;53.200;6.080;2022-12-11T22:32:20;101024.34;;;20.73;32.94
76122;BME280;64853;53.200;6.080;2022-12-11T22:37:12;101017.75;;;20.69;32.72
76122;BME280;64853;53.200;6.080;2022-12-11T22:42:03;101022.25;;;20.65;32.67
76122;BME280;64853;53.200;6.080;2022-12-11T22:46:56;101011.56;;;20.58;32.54
76122;BME280;64853;53.200;6.080;2022-12-11T22:51:48;101019.91;;;20.53;32.60
76122;BME280;64853;53.200;6.080;2022-12-11T22:56:39;101018.03;;;20.48;32.89
76122;BME280;64853;53.200;6.080;2022-12-11T23:01:30;101023.06;;;20.46;32.65
76122;BME280;64853;53.200;6.080;2022-12-11T23:06:24;101034.72;;;20.43;32.57
76122;BME280;64853;53.200;6.080;2022-12-11T23:11:18;101027.38;;;20.33;32.92
76122;BME280;64853;53.200;6.080;2022-12-11T23:16:10;101029.03;;;20.34;32.59
76122;BME280;64853;53.200;6.080;2022-12-11T23:21:03;101031.25;;;20.32;32.70
76122;BME280;64853;53.200;6.080;2022-12-11T23:25:56;101022.22;;;20.27;32.92
76122;BME280;64853;53.200;6.080;2022-12-11T23:30:48;101036.31;;;20.25;32.85
76122;BME280;64853;53.200;6.080;2022-12-11T23:35:40;101034.44;;;20.20;32.54
76122;BME280;64853;53.200;6.080;2022-12-11T23:40:31;101040.56;;;20.17;32.49
76122;BME280;64853;53.200;6.080;2022-12-11T23:45:24;101047.50;;;20.15;32.55
76122;BME280;64853;53.200;6.080;2022-12-11T23:50:16;101044.78;;;20.10;32.56
76122;BME280;64853;53.200;6.080;2022-12-11T23:55:08;101061.16;;;20.06;32.91
